sensor_id;sensor_type;location;lat;lon;timestamp;temperature;humidity
69359;HTU21D;56520;49.066;8.660;2024-01-25T00:01:48;9.96;78.17
69359;HTU21D;56520;49.066;8.660;2024-01-25T00:04:14;9.98;78.07
69359;HTU21D;56520;49.066;8.660;2024-01-25T00:06:39;10.01;77.96
69359;HTU21D;56520;49.066;8.660;2024-01-25T00:09:05;10.07;77.98
69359;HTU21D;56520;49.066;8.660;2024-01-25T00:11:31;10.04;77.93
69359;HTU21D;56520;49.066;8.660;2024-01-25T00:13:57;10.10;77.79
69359;HTU21D;56520;49.066;8.660;2024-01-25T00:16:22;10.04;78.01
69359;HTU21D;56520;49.066;8.660;2024-01-25T00:18:59;10.07;77.88
69359;HTU21D;56520;49.066;8.660;2024-01-25T00:21:25;10.07;78.03
69359;HTU21D;56520;49.066;8.660;2024-01-25T00:23:51;10.07;77.96
69359;HTU21D;56520;49.066;8.660;2024-01-25T00:26:19;10.14;77.72
69359;HTU21D;56520;49.066;8.660;2024-01-25T00:28:48;10.08;78.01
69359;HTU21D;56520;49.066;8.660;2024-01-25T00:31:13;10.12;78.00
69359;HTU21D;56520;49.066;8.660;2024-01-25T00:40:19;9.99;78.61
69359;HTU21D;56520;49.066;8.660;2024-01-25T00:42:46;9.99;78.85
69359;HTU21D;56520;49.066;8.660;2024-01-25T00:45:22;10.01;78.83
69359;HTU21D;56520;49.066;8.660;2024-01-25T00:47:48;10.00;78.84
69359;HTU21D;56520;49.066;8.660;2024-01-25T00:50:14;9.97;78.93
69359;HTU21D;56520;49.066;8.660;2024-01-25T00:52:45;9.96;78.92
69359;HTU21D;56520;49.066;8.660;2024-01-25T00:55:11;10.00;79.17
69359;HTU21D;56520;49.066;8.660;2024-01-25T00:57:37;9.96;79.08
69359;HTU21D;56520;49.066;8.660;2024-01-25T01:00:03;9.95;79.30
69359;HTU21D;56520;49.066;8.660;2024-01-25T01:02:30;9.94;79.44
69359;HTU21D;56520;49.066;8.660;2024-01-25T01:05:00;9.96;79.20
69359;HTU21D;56520;49.066;8.660;2024-01-25T01:07:26;9.96;79.11
69359;HTU21D;56520;49.066;8.660;2024-01-25T01:09:51;9.98;79.08
69359;HTU21D;56520;49.066;8.660;2024-01-25T01:12:17;9.97;79.13
69359;HTU21D;56520;49.066;8.660;2024-01-25T01:14:45;9.95;78.98
69359;HTU21D;56520;49.066;8.660;2024-01-25T01:17:11;9.97;78.92
69359;HTU21D;56520;49.066;8.660;2024-01-25T01:19:36;10.00;78.51
69359;HTU21D;56520;49.066;8.660;2024-01-25T01:22:02;9.99;78.53
69359;HTU21D;56520;49.066;8.660;2024-01-25T01:24:27;9.98;78.38
69359;HTU21D;56520;49.066;8.660;2024-01-25T01:26:52;9.98;78.35
69359;HTU21D;56520;49.066;8.660;2024-01-25T01:29:18;9.94;78.58
69359;HTU21D;56520;49.066;8.660;2024-01-25T01:31:44;9.94;78.37
69359;HTU21D;56520;49.066;8.660;2024-01-25T01:34:09;9.94;78.18
69359;HTU21D;56520;49.066;8.660;2024-01-25T01:36:35;9.94;78.21
69359;HTU21D;56520;49.066;8.660;2024-01-25T01:39:00;9.91;78.24
69359;HTU21D;56520;49.066;8.660;2024-01-25T01:41:26;9.95;78.19
69359;HTU21D;56520;49.066;8.660;2024-01-25T01:43:54;9.92;78.23
69359;HTU21D;56520;49.066;8.660;2024-01-25T01:53:14;9.95;77.61
69359;HTU21D;56520;49.066;8.660;2024-01-25T01:55:43;9.92;77.74
69359;HTU21D;56520;49.066;8.660;2024-01-25T01:58:12;9.86;77.92
69359;HTU21D;56520;49.066;8.660;2024-01-25T02:00:59;9.84;78.05
69359;HTU21D;56520;49.066;8.660;2024-01-25T02:03:25;9.84;78.14
69359;HTU21D;56520;49.066;8.660;2024-01-25T02:05:50;9.80;78.31
69359;HTU21D;56520;49.066;8.660;2024-01-25T02:08:16;9.80;78.11
69359;HTU21D;56520;49.066;8.660;2024-01-25T02:10:41;9.75;78.28
69359;HTU21D;56520;49.066;8.660;2024-01-25T02:13:08;9.77;78.20
69359;HTU21D;56520;49.066;8.660;2024-01-25T02:15:34;9.75;78.38
69359;HTU21D;56520;49.066;8.660;2024-01-25T02:17:59;9.71;78.43
69359;HTU21D;56520;49.066;8.660;2024-01-25T02:20:25;9.71;78.62
69359;HTU21D;56520;49.066;8.660;2024-01-25T02:22:50;9.72;78.27
69359;HTU21D;56520;49.066;8.660;2024-01-25T02:25:16;9.70;78.27
69359;HTU21D;56520;49.066;8.660;2024-01-25T02:27:41;9.72;77.96
69359;HTU21D;56520;49.066;8.660;2024-01-25T02:30:07;9.72;77.95
69359;HTU21D;56520;49.066;8.660;2024-01-25T02:32:33;9.69;78.05
69359;HTU21D;56520;49.066;8.660;2024-01-25T02:34:58;9.70;77.92
69359;HTU21D;56520;49.066;8.660;2024-01-25T02:37:24;9.69;77.72
69359;HTU21D;56520;49.066;8.660;2024-01-25T02:39:50;9.76;77.31
69359;HTU21D;56520;49.066;8.660;2024-01-25T02:42:16;9.76;77.31
69359;HTU21D;56520;49.066;8.660;2024-01-25T02:44:42;9.76;77.41
69359;HTU21D;56520;49.066;8.660;2024-01-25T02:47:07;9.78;77.09
69359;HTU21D;56520;49.066;8.660;2024-01-25T02:49:33;9.76;77.24
69359;HTU21D;56520;49.066;8.660;2024-01-25T02:51:58;9.72;77.15
69359;HTU21D;56520;49.066;8.660;2024-01-25T02:54:24;9.70;77.26
69359;HTU21D;56520;49.066;8.660;2024-01-25T02:56:49;9.69;77.13
69359;HTU21D;56520;49.066;8.660;2024-01-25T02:59:14;9.66;77.10
69359;HTU21D;56520;49.066;8.660;2024-01-25T03:01:41;9.65;77.14
69359;HTU21D;56520;49.066;8.660;2024-01-25T03:04:07;9.63;77.03
69359;HTU21D;56520;49.066;8.660;2024-01-25T03:06:32;9.63;76.97
69359;HTU21D;56520;49.066;8.660;2024-01-25T03:08:57;9.63;76.74
69359;HTU21D;56520;49.066;8.660;2024-01-25T03:11:23;9.56;77.00
69359;HTU21D;56520;49.066;8.660;2024-01-25T03:13:48;9.53;77.21
69359;HTU21D;56520;49.066;8.660;2024-01-25T03:16:13;9.50;77.31
69359;HTU21D;56520;49.066;8.660;2024-01-25T03:18:39;9.48;77.46
69359;HTU21D;56520;49.066;8.660;2024-01-25T03:21:05;9.44;77.54
69359;HTU21D;56520;49.066;8.660;2024-01-25T03:23:30;9.39;77.74
69359;HTU21D;56520;49.066;8.660;2024-01-25T03:25:55;9.44;77.53
69359;HTU21D;56520;49.066;8.660;2024-01-25T03:28:21;9.46;77.44
69359;HTU21D;56520;49.066;8.660;2024-01-25T03:30:47;9.55;76.84
69359;HTU21D;56520;49.066;8.660;2024-01-25T03:33:12;9.53;76.86
69359;HTU21D;56520;49.066;8.660;2024-01-25T03:35:38;9.51;76.97
69359;HTU21D;56520;49.066;8.660;2024-01-25T03:38:04;9.50;77.14
69359;HTU21D;56520;49.066;8.660;2024-01-25T03:40:29;9.48;77.19
69359;HTU21D;56520;49.066;8.660;2024-01-25T03:42:55;9.46;77.24
69359;HTU21D;56520;49.066;8.660;2024-01-25T03:45:20;9.45;77.23
69359;HTU21D;56520;49.066;8.660;2024-01-25T03:47:46;9.49;76.92
69359;HTU21D;56520;49.066;8.660;2024-01-25T03:50:12;9.49;76.94
69359;HTU21D;56520;49.066;8.660;2024-01-25T03:52:37;9.52;76.67
69359;HTU21D;56520;49.066;8.660;2024-01-25T03:55:03;9.52;76.54
69359;HTU21D;56520;49.066;8.660;2024-01-25T03:57:29;9.54;76.44
69359;HTU21D;56520;49.066;8.660;2024-01-25T03:59:55;9.52;76.58
69359;HTU21D;56520;49.066;8.660;2024-01-25T04:02:20;9.55;76.16
69359;HTU21D;56520;49.066;8.660;2024-01-25T04:04:46;9.60;75.76
69359;HTU21D;56520;49.066;8.660;2024-01-25T04:07:11;9.56;76.05
69359;HTU21D;56520;49.066;8.660;2024-01-25T04:09:36;9.51;76.25
69359;HTU21D;56520;49.066;8.660;2024-01-25T04:12:02;9.53;76.07
69359;HTU21D;56520;49.066;8.660;2024-01-25T04:14:28;9.51;75.83
69359;HTU21D;56520;49.066;8.660;2024-01-25T04:16:53;9.51;75.70
69359;HTU21D;56520;49.066;8.660;2024-01-25T04:19:18;9.53;75.53
69359;HTU21D;56520;49.066;8.660;2024-01-25T04:21:44;9.56;74.94
69359;HTU21D;56520;49.066;8.660;2024-01-25T04:24:09;9.56;74.99
69359;HTU21D;56520;49.066;8.660;2024-01-25T04:26:34;9.54;74.78
69359;HTU21D;56520;49.066;8.660;2024-01-25T04:29:00;9.52;74.70
69359;HTU21D;56520;49.066;8.660;2024-01-25T04:31:25;9.48;74.69
69359;HTU21D;56520;49.066;8.660;2024-01-25T04:33:51;9.48;74.27
69359;HTU21D;56520;49.066;8.660;2024-01-25T04:36:16;9.41;74.57
69359;HTU21D;56520;49.066;8.660;2024-01-25T04:38:42;9.33;74.70
69359;HTU21D;56520;49.066;8.660;2024-01-25T04:41:07;9.26;74.68
69359;HTU21D;56520;49.066;8.660;2024-01-25T04:43:36;9.26;74.45
69359;HTU21D;56520;49.066;8.660;2024-01-25T04:46:02;9.33;73.55
69359;HTU21D;56520;49.066;8.660;2024-01-25T04:48:28;9.33;73.36
69359;HTU21D;56520;49.066;8.660;2024-01-25T04:50:53;9.24;74.03
69359;HTU21D;56520;49.066;8.660;2024-01-25T04:53:19;9.12;74.44
69359;HTU21D;56520;49.066;8.660;2024-01-25T04:55:44;9.00;74.83
69359;HTU21D;56520;49.066;8.660;2024-01-25T04:58:09;8.90;75.01
69359;HTU21D;56520;49.066;8.660;2024-01-25T05:00:36;8.86;75.05
69359;HTU21D;56520;49.066;8.660;2024-01-25T05:03:03;8.74;75.56
69359;HTU21D;56520;49.066;8.660;2024-01-25T05:05:29;8.62;75.78
69359;HTU21D;56520;49.066;8.660;2024-01-25T05:07:54;8.61;75.86
69359;HTU21D;56520;49.066;8.660;2024-01-25T05:10:20;8.57;75.87
69359;HTU21D;56520;49.066;8.660;2024-01-25T05:12:45;8.50;75.99
69359;HTU21D;56520;49.066;8.660;2024-01-25T05:15:10;8.49;75.98
69359;HTU21D;56520;49.066;8.660;2024-01-25T05:17:36;8.45;76.08
69359;HTU21D;56520;49.066;8.660;2024-01-25T05:20:01;8.34;76.64
69359;HTU21D;56520;49.066;8.660;2024-01-25T05:22:28;8.27;76.86
69359;HTU21D;56520;49.066;8.660;2024-01-25T05:24:53;8.17;77.49
69359;HTU21D;56520;49.066;8.660;2024-01-25T05:27:18;8.13;77.76
69359;HTU21D;56520;49.066;8.660;2024-01-25T05:29:44;8.11;77.63
69359;HTU21D;56520;49.066;8.660;2024-01-25T05:32:09;8.06;77.83
69359;HTU21D;56520;49.066;8.660;2024-01-25T05:34:35;7.98;78.00
69359;HTU21D;56520;49.066;8.660;2024-01-25T05:37:00;7.92;78.22
69359;HTU21D;56520;49.066;8.660;2024-01-25T05:39:25;7.91;78.36
69359;HTU21D;56520;49.066;8.660;2024-01-25T05:41:51;7.92;78.46
69359;HTU21D;56520;49.066;8.660;2024-01-25T05:44:16;7.90;78.28
69359;HTU21D;56520;49.066;8.660;2024-01-25T05:46:41;7.88;78.45
69359;HTU21D;56520;49.066;8.660;2024-01-25T05:49:07;7.79;78.53
69359;HTU21D;56520;49.066;8.660;2024-01-25T05:51:32;7.72;78.89
69359;HTU21D;56520;49.066;8.660;2024-01-25T05:53:58;7.68;79.23
69359;HTU21D;56520;49.066;8.660;2024-01-25T05:56:23;7.59;79.50
69359;HTU21D;56520;49.066;8.660;2024-01-25T05:58:49;7.50;79.81
69359;HTU21D;56520;49.066;8.660;2024-01-25T06:01:14;7.45;80.17
69359;HTU21D;56520;49.066;8.660;2024-01-25T06:03:39;7.33;80.36
69359;HTU21D;56520;49.066;8.660;2024-01-25T06:06:05;7.27;81.12
69359;HTU21D;56520;49.066;8.660;2024-01-25T06:08:33;7.24;81.39
69359;HTU21D;56520;49.066;8.660;2024-01-25T06:10:58;7.18;81.74
69359;HTU21D;56520;49.066;8.660;2024-01-25T06:13:24;7.15;82.10
69359;HTU21D;56520;49.066;8.660;2024-01-25T06:15:49;7.11;82.28
69359;HTU21D;56520;49.066;8.660;2024-01-25T06:18:14;7.11;82.70
69359;HTU21D;56520;49.066;8.660;2024-01-25T06:20:40;7.09;82.75
69359;HTU21D;56520;49.066;8.660;2024-01-25T06:23:05;7.09;82.82
69359;HTU21D;56520;49.066;8.660;2024-01-25T06:25:30;7.05;83.03
69359;HTU21D;56520;49.066;8.660;2024-01-25T06:27:57;7.02;82.98
69359;HTU21D;56520;49.066;8.660;2024-01-25T06:30:22;6.98;83.12
69359;HTU21D;56520;49.066;8.660;2024-01-25T06:32:48;6.89;83.35
69359;HTU21D;56520;49.066;8.660;2024-01-25T06:35:14;6.83;83.67
69359;HTU21D;56520;49.066;8.660;2024-01-25T06:37:39;6.79;84.05
69359;HTU21D;56520;49.066;8.660;2024-01-25T06:40:05;6.72;84.26
69359;HTU21D;56520;49.066;8.660;2024-01-25T06:42:31;6.69;84.70
69359;HTU21D;56520;49.066;8.660;2024-01-25T06:44:59;6.63;84.64
69359;HTU21D;56520;49.066;8.660;2024-01-25T06:47:25;6.56;84.77
69359;HTU21D;56520;49.066;8.660;2024-01-25T06:49:50;6.50;84.84
69359;HTU21D;56520;49.066;8.660;2024-01-25T06:52:17;6.43;84.67
69359;HTU21D;56520;49.066;8.660;2024-01-25T06:54:43;6.38;84.90
69359;HTU21D;56520;49.066;8.660;2024-01-25T06:57:08;6.43;85.42
69359;HTU21D;56520;49.066;8.660;2024-01-25T06:59:33;6.48;85.80
69359;HTU21D;56520;49.066;8.660;2024-01-25T07:01:59;6.48;85.71
69359;HTU21D;56520;49.066;8.660;2024-01-25T07:04:25;6.46;85.74
69359;HTU21D;56520;49.066;8.660;2024-01-25T07:06:51;6.53;86.09
69359;HTU21D;56520;49.066;8.660;2024-01-25T07:09:16;6.61;86.61
69359;HTU21D;56520;49.066;8.660;2024-01-25T07:11:42;6.68;86.62
69359;HTU21D;56520;49.066;8.660;2024-01-25T07:14:07;6.72;86.47
69359;HTU21D;56520;49.066;8.660;2024-01-25T07:16:35;6.78;86.71
69359;HTU21D;56520;49.066;8.660;2024-01-25T07:19:00;6.79;86.21
69359;HTU21D;56520;49.066;8.660;2024-01-25T07:21:25;6.74;86.37
69359;HTU21D;56520;49.066;8.660;2024-01-25T07:23:51;6.72;86.34
69359;HTU21D;56520;49.066;8.660;2024-01-25T07:26:20;6.73;86.51
69359;HTU21D;56520;49.066;8.660;2024-01-25T07:28:46;6.71;86.51
69359;HTU21D;56520;49.066;8.660;2024-01-25T07:31:11;6.64;86.61
69359;HTU21D;56520;49.066;8.660;2024-01-25T07:33:37;6.56;86.55
69359;HTU21D;56520;49.066;8.660;2024-01-25T07:36:02;6.46;86.90
69359;HTU21D;56520;49.066;8.660;2024-01-25T07:38:28;6.38;87.63
69359;HTU21D;56520;49.066;8.660;2024-01-25T07:40:53;6.33;88.32
69359;HTU21D;56520;49.066;8.660;2024-01-25T07:43:19;6.29;87.77
69359;HTU21D;56520;49.066;8.660;2024-01-25T07:45:44;6.30;88.04
69359;HTU21D;56520;49.066;8.660;2024-01-25T07:48:09;6.31;88.72
69359;HTU21D;56520;49.066;8.660;2024-01-25T07:50:35;6.31;89.31
69359;HTU21D;56520;49.066;8.660;2024-01-25T07:53:00;6.35;89.64
69359;HTU21D;56520;49.066;8.660;2024-01-25T07:55:27;6.41;89.50
69359;HTU21D;56520;49.066;8.660;2024-01-25T07:57:57;6.52;90.05
69359;HTU21D;56520;49.066;8.660;2024-01-25T08:00:22;6.59;90.39
69359;HTU21D;56520;49.066;8.660;2024-01-25T08:02:47;6.71;91.02
69359;HTU21D;56520;49.066;8.660;2024-01-25T08:05:13;6.83;90.98
69359;HTU21D;56520;49.066;8.660;2024-01-25T08:07:38;7.01;91.43
69359;HTU21D;56520;49.066;8.660;2024-01-25T08:10:04;7.11;90.95
69359;HTU21D;56520;49.066;8.660;2024-01-25T08:12:30;7.17;91.12
69359;HTU21D;56520;49.066;8.660;2024-01-25T08:14:55;7.23;90.73
69359;HTU21D;56520;49.066;8.660;2024-01-25T08:17:21;7.26;90.75
69359;HTU21D;56520;49.066;8.660;2024-01-25T08:19:46;7.31;90.82
69359;HTU21D;56520;49.066;8.660;2024-01-25T08:22:12;7.46;90.98
69359;HTU21D;56520;49.066;8.660;2024-01-25T08:24:40;7.67;91.29
69359;HTU21D;56520;49.066;8.660;2024-01-25T08:27:06;7.83;91.11
69359;HTU21D;56520;49.066;8.660;2024-01-25T08:29:33;8.11;90.92
69359;HTU21D;56520;49.066;8.660;2024-01-25T08:31:58;8.51;90.71
69359;HTU21D;56520;49.066;8.660;2024-01-25T08:34:23;9.05;89.44
69359;HTU21D;56520;49.066;8.660;2024-01-25T08:36:49;9.63;86.06
69359;HTU21D;56520;49.066;8.660;2024-01-25T08:39:14;10.03;84.90
69359;HTU21D;56520;49.066;8.660;2024-01-25T08:41:41;10.46;83.94
69359;HTU21D;56520;49.066;8.660;2024-01-25T08:44:10;10.87;82.36
69359;HTU21D;56520;49.066;8.660;2024-01-25T08:46:38;11.24;80.55
69359;HTU21D;56520;49.066;8.660;2024-01-25T08:49:03;11.49;80.47
69359;HTU21D;56520;49.066;8.660;2024-01-25T08:51:33;11.91;78.38
69359;HTU21D;56520;49.066;8.660;2024-01-25T08:53:59;12.30;77.53
69359;HTU21D;56520;49.066;8.660;2024-01-25T08:56:24;12.63;75.34
69359;HTU21D;56520;49.066;8.660;2024-01-25T08:58:50;12.95;73.04
69359;HTU21D;56520;49.066;8.660;2024-01-25T09:01:15;13.14;72.63
69359;HTU21D;56520;49.066;8.660;2024-01-25T09:03:41;13.20;72.58
69359;HTU21D;56520;49.066;8.660;2024-01-25T09:06:06;13.38;71.48
69359;HTU21D;56520;49.066;8.660;2024-01-25T09:08:32;13.37;72.14
69359;HTU21D;56520;49.066;8.660;2024-01-25T09:10:58;13.56;70.56
69359;HTU21D;56520;49.066;8.660;2024-01-25T09:13:24;13.69;70.21
69359;HTU21D;56520;49.066;8.660;2024-01-25T09:15:49;13.70;70.09
69359;HTU21D;56520;49.066;8.660;2024-01-25T09:18:15;13.77;69.66
69359;HTU21D;56520;49.066;8.660;2024-01-25T09:20:40;13.84;68.57
69359;HTU21D;56520;49.066;8.660;2024-01-25T09:23:06;13.97;67.98
69359;HTU21D;56520;49.066;8.660;2024-01-25T09:25:32;13.95;68.59
69359;HTU21D;56520;49.066;8.660;2024-01-25T09:27:59;14.09;67.52
69359;HTU21D;56520;49.066;8.660;2024-01-25T09:30:24;14.14;68.36
69359;HTU21D;56520;49.066;8.660;2024-01-25T09:32:51;14.22;68.24
69359;HTU21D;56520;49.066;8.660;2024-01-25T09:35:17;14.42;66.24
69359;HTU21D;56520;49.066;8.660;2024-01-25T09:37:42;14.34;66.32
69359;HTU21D;56520;49.066;8.660;2024-01-25T09:40:08;14.28;65.46
69359;HTU21D;56520;49.066;8.660;2024-01-25T09:42:35;14.11;65.59
69359;HTU21D;56520;49.066;8.660;2024-01-25T09:45:01;13.82;67.08
69359;HTU21D;56520;49.066;8.660;2024-01-25T09:47:29;13.77;67.16
69359;HTU21D;56520;49.066;8.660;2024-01-25T09:49:55;13.82;66.73
69359;HTU21D;56520;49.066;8.660;2024-01-25T09:52:22;13.52;67.93
69359;HTU21D;56520;49.066;8.660;2024-01-25T09:54:53;13.23;68.90
69359;HTU21D;56520;49.066;8.660;2024-01-25T09:57:22;13.38;69.52
69359;HTU21D;56520;49.066;8.660;2024-01-25T09:59:49;13.44;68.74
69359;HTU21D;56520;49.066;8.660;2024-01-25T10:02:15;13.16;68.89
69359;HTU21D;56520;49.066;8.660;2024-01-25T10:04:41;13.00;69.72
69359;HTU21D;56520;49.066;8.660;2024-01-25T10:07:06;12.76;70.22
69359;HTU21D;56520;49.066;8.660;2024-01-25T10:09:41;12.49;70.83
69359;HTU21D;56520;49.066;8.660;2024-01-25T10:12:07;12.13;71.68
69359;HTU21D;56520;49.066;8.660;2024-01-25T10:14:32;11.78;73.02
69359;HTU21D;56520;49.066;8.660;2024-01-25T10:16:58;11.47;74.06
69359;HTU21D;56520;49.066;8.660;2024-01-25T10:19:25;11.47;75.12
69359;HTU21D;56520;49.066;8.660;2024-01-25T10:21:50;11.49;74.70
69359;HTU21D;56520;49.066;8.660;2024-01-25T10:24:16;11.41;74.51
69359;HTU21D;56520;49.066;8.660;2024-01-25T10:26:41;11.30;74.94
69359;HTU21D;56520;49.066;8.660;2024-01-25T10:29:10;11.28;75.36
69359;HTU21D;56520;49.066;8.660;2024-01-25T10:31:39;11.38;75.25
69359;HTU21D;56520;49.066;8.660;2024-01-25T10:34:07;11.52;75.04
69359;HTU21D;56520;49.066;8.660;2024-01-25T10:36:35;11.61;75.00
69359;HTU21D;56520;49.066;8.660;2024-01-25T10:39:02;11.63;74.65
69359;HTU21D;56520;49.066;8.660;2024-01-25T10:41:30;11.47;74.64
69359;HTU21D;56520;49.066;8.660;2024-01-25T10:43:56;11.18;75.20
69359;HTU21D;56520;49.066;8.660;2024-01-25T10:46:22;11.03;75.81
69359;HTU21D;56520;49.066;8.660;2024-01-25T10:48:48;10.98;76.24
69359;HTU21D;56520;49.066;8.660;2024-01-25T10:51:14;10.87;76.55
69359;HTU21D;56520;49.066;8.660;2024-01-25T10:53:44;10.93;76.45
69359;HTU21D;56520;49.066;8.660;2024-01-25T10:56:09;11.14;76.59
69359;HTU21D;56520;49.066;8.660;2024-01-25T10:58:35;11.37;75.21
69359;HTU21D;56520;49.066;8.660;2024-01-25T11:01:01;11.47;75.03
69359;HTU21D;56520;49.066;8.660;2024-01-25T11:03:29;11.60;74.49
69359;HTU21D;56520;49.066;8.660;2024-01-25T11:06:06;11.77;73.28
69359;HTU21D;56520;49.066;8.660;2024-01-25T11:08:32;11.73;72.67
69359;HTU21D;56520;49.066;8.660;2024-01-25T11:10:57;11.53;73.01
69359;HTU21D;56520;49.066;8.660;2024-01-25T11:13:26;11.37;73.54
69359;HTU21D;56520;49.066;8.660;2024-01-25T11:15:51;11.40;73.88
69359;HTU21D;56520;49.066;8.660;2024-01-25T11:18:17;11.60;73.62
69359;HTU21D;56520;49.066;8.660;2024-01-25T11:20:42;11.85;72.63
69359;HTU21D;56520;49.066;8.660;2024-01-25T11:23:15;12.14;71.77
69359;HTU21D;56520;49.066;8.660;2024-01-25T11:25:44;12.21;71.25
69359;HTU21D;56520;49.066;8.660;2024-01-25T11:28:10;12.11;71.25
69359;HTU21D;56520;49.066;8.660;2024-01-25T11:30:36;12.10;71.14
69359;HTU21D;56520;49.066;8.660;2024-01-25T11:33:07;12.03;69.33
69359;HTU21D;56520;49.066;8.660;2024-01-25T11:35:33;11.89;70.43
69359;HTU21D;56520;49.066;8.660;2024-01-25T11:37:58;11.79;69.39
69359;HTU21D;56520;49.066;8.660;2024-01-25T11:40:25;11.82;69.76
69359;HTU21D;56520;49.066;8.660;2024-01-25T11:42:50;11.81;69.78
69359;HTU21D;56520;49.066;8.660;2024-01-25T11:45:17;11.55;70.26
69359;HTU21D;56520;49.066;8.660;2024-01-25T11:47:43;11.46;71.37
69359;HTU21D;56520;49.066;8.660;2024-01-25T11:50:11;11.72;71.34
69359;HTU21D;56520;49.066;8.660;2024-01-25T11:52:37;11.99;70.81
69359;HTU21D;56520;49.066;8.660;2024-01-25T11:55:07;12.23;69.97
69359;HTU21D;56520;49.066;8.660;2024-01-25T11:57:40;12.46;69.14
69359;HTU21D;56520;49.066;8.660;2024-01-25T12:00:10;12.50;67.75
69359;HTU21D;56520;49.066;8.660;2024-01-25T12:02:37;12.61;66.67
69359;HTU21D;56520;49.066;8.660;2024-01-25T12:05:04;12.67;67.09
69359;HTU21D;56520;49.066;8.660;2024-01-25T12:07:30;12.81;66.03
69359;HTU21D;56520;49.066;8.660;2024-01-25T12:10:07;12.96;64.73
69359;HTU21D;56520;49.066;8.660;2024-01-25T12:12:32;13.07;65.34
69359;HTU21D;56520;49.066;8.660;2024-01-25T12:15:00;13.22;65.40
69359;HTU21D;56520;49.066;8.660;2024-01-25T12:17:27;13.43;63.82
69359;HTU21D;56520;49.066;8.660;2024-01-25T12:19:57;13.47;62.85
69359;HTU21D;56520;49.066;8.660;2024-01-25T12:22:24;13.37;63.45
69359;HTU21D;56520;49.066;8.660;2024-01-25T12:24:53;13.18;64.05
69359;HTU21D;56520;49.066;8.660;2024-01-25T12:27:20;13.10;65.17
69359;HTU21D;56520;49.066;8.660;2024-01-25T12:29:46;13.10;65.02
69359;HTU21D;56520;49.066;8.660;2024-01-25T12:32:12;13.15;64.56
69359;HTU21D;56520;49.066;8.660;2024-01-25T12:34:37;13.12;65.00
69359;HTU21D;56520;49.066;8.660;2024-01-25T12:37:04;13.11;65.31
69359;HTU21D;56520;49.066;8.660;2024-01-25T12:39:30;13.15;65.59
69359;HTU21D;56520;49.066;8.660;2024-01-25T12:41:55;13.21;65.41
69359;HTU21D;56520;49.066;8.660;2024-01-25T12:44:20;13.19;65.50
69359;HTU21D;56520;49.066;8.660;2024-01-25T12:46:46;13.18;65.95
69359;HTU21D;56520;49.066;8.660;2024-01-25T12:49:11;13.20;65.66
69359;HTU21D;56520;49.066;8.660;2024-01-25T12:51:37;13.23;66.15
69359;HTU21D;56520;49.066;8.660;2024-01-25T12:54:02;13.29;66.20
69359;HTU21D;56520;49.066;8.660;2024-01-25T12:56:27;13.38;65.04
69359;HTU21D;56520;49.066;8.660;2024-01-25T12:58:53;13.32;65.43
69359;HTU21D;56520;49.066;8.660;2024-01-25T13:01:19;13.31;65.78
69359;HTU21D;56520;49.066;8.660;2024-01-25T13:03:44;13.41;64.65
69359;HTU21D;56520;49.066;8.660;2024-01-25T13:06:12;13.52;65.21
69359;HTU21D;56520;49.066;8.660;2024-01-25T13:08:37;13.63;64.88
69359;HTU21D;56520;49.066;8.660;2024-01-25T13:11:03;13.65;63.53
69359;HTU21D;56520;49.066;8.660;2024-01-25T13:13:28;13.58;63.11
69359;HTU21D;56520;49.066;8.660;2024-01-25T13:15:54;13.44;64.23
69359;HTU21D;56520;49.066;8.660;2024-01-25T13:18:19;13.36;64.22
69359;HTU21D;56520;49.066;8.660;2024-01-25T13:20:45;13.29;64.47
69359;HTU21D;56520;49.066;8.660;2024-01-25T13:23:10;13.18;64.53
69359;HTU21D;56520;49.066;8.660;2024-01-25T13:25:35;13.06;62.90
69359;HTU21D;56520;49.066;8.660;2024-01-25T13:28:01;12.75;64.21
69359;HTU21D;56520;49.066;8.660;2024-01-25T13:30:26;12.52;64.78
69359;HTU21D;56520;49.066;8.660;2024-01-25T13:32:51;12.38;65.30
69359;HTU21D;56520;49.066;8.660;2024-01-25T13:35:17;12.31;64.98
69359;HTU21D;56520;49.066;8.660;2024-01-25T13:37:42;12.28;64.72
69359;HTU21D;56520;49.066;8.660;2024-01-25T13:40:08;12.25;65.26
69359;HTU21D;56520;49.066;8.660;2024-01-25T13:42:33;12.23;65.50
69359;HTU21D;56520;49.066;8.660;2024-01-25T13:44:59;12.21;65.14
69359;HTU21D;56520;49.066;8.660;2024-01-25T13:47:24;12.17;65.70
69359;HTU21D;56520;49.066;8.660;2024-01-25T13:49:50;12.22;66.00
69359;HTU21D;56520;49.066;8.660;2024-01-25T13:52:19;12.42;65.72
69359;HTU21D;56520;49.066;8.660;2024-01-25T13:54:45;12.51;65.63
69359;HTU21D;56520;49.066;8.660;2024-01-25T13:57:11;12.56;65.83
69359;HTU21D;56520;49.066;8.660;2024-01-25T13:59:36;12.55;66.26
69359;HTU21D;56520;49.066;8.660;2024-01-25T14:02:02;12.60;66.72
69359;HTU21D;56520;49.066;8.660;2024-01-25T14:04:27;12.64;66.59
69359;HTU21D;56520;49.066;8.660;2024-01-25T14:06:52;12.77;65.27
69359;HTU21D;56520;49.066;8.660;2024-01-25T14:09:18;12.77;64.88
69359;HTU21D;56520;49.066;8.660;2024-01-25T14:11:43;12.56;65.73
69359;HTU21D;56520;49.066;8.660;2024-01-25T14:14:09;12.31;66.30
69359;HTU21D;56520;49.066;8.660;2024-01-25T14:16:35;12.11;66.96
69359;HTU21D;56520;49.066;8.660;2024-01-25T14:19:00;11.94;67.42
69359;HTU21D;56520;49.066;8.660;2024-01-25T14:21:28;11.82;67.77
69359;HTU21D;56520;49.066;8.660;2024-01-25T14:23:54;11.78;68.12
69359;HTU21D;56520;49.066;8.660;2024-01-25T14:26:19;11.76;68.36
69359;HTU21D;56520;49.066;8.660;2024-01-25T14:28:44;11.70;68.50
69359;HTU21D;56520;49.066;8.660;2024-01-25T14:31:10;11.67;68.75
69359;HTU21D;56520;49.066;8.660;2024-01-25T14:33:35;11.69;69.06
69359;HTU21D;56520;49.066;8.660;2024-01-25T14:36:01;11.70;68.63
69359;HTU21D;56520;49.066;8.660;2024-01-25T14:38:29;11.68;68.81
69359;HTU21D;56520;49.066;8.660;2024-01-25T14:40:54;11.57;69.30
69359;HTU21D;56520;49.066;8.660;2024-01-25T14:43:19;11.47;69.83
69359;HTU21D;56520;49.066;8.660;2024-01-25T14:45:45;11.46;69.82
69359;HTU21D;56520;49.066;8.660;2024-01-25T14:48:10;11.37;70.41
69359;HTU21D;56520;49.066;8.660;2024-01-25T14:50:36;11.33;70.16
69359;HTU21D;56520;49.066;8.660;2024-01-25T14:53:02;11.27;70.58
69359;HTU21D;56520;49.066;8.660;2024-01-25T14:55:28;11.22;71.16
69359;HTU21D;56520;49.066;8.660;2024-01-25T14:57:53;11.19;71.22
69359;HTU21D;56520;49.066;8.660;2024-01-25T15:00:19;11.17;71.46
69359;HTU21D;56520;49.066;8.660;2024-01-25T15:02:48;11.17;71.86
69359;HTU21D;56520;49.066;8.660;2024-01-25T15:05:13;11.17;71.68
69359;HTU21D;56520;49.066;8.660;2024-01-25T15:07:40;11.11;72.04
69359;HTU21D;56520;49.066;8.660;2024-01-25T15:10:06;11.09;72.53
69359;HTU21D;56520;49.066;8.660;2024-01-25T15:12:31;11.10;72.90
69359;HTU21D;56520;49.066;8.660;2024-01-25T15:14:57;11.08;73.29
69359;HTU21D;56520;49.066;8.660;2024-01-25T15:17:24;11.04;73.26
69359;HTU21D;56520;49.066;8.660;2024-01-25T15:19:49;10.98;73.95
69359;HTU21D;56520;49.066;8.660;2024-01-25T15:22:15;10.94;74.04
69359;HTU21D;56520;49.066;8.660;2024-01-25T15:24:40;10.84;74.42
69359;HTU21D;56520;49.066;8.660;2024-01-25T15:27:06;10.80;75.02
69359;HTU21D;56520;49.066;8.660;2024-01-25T15:29:31;10.79;75.28